Horsholm, Denmark
Current Conditions -  °F | °C
As of 11:50 AM on Monday 20 Oct 2014 (Local Time) from EKCH Reporting Station
Broken Clouds Broken Clouds  
Wind Chill: 57°   Ceiling: 2400
Heat Index: 57°   Visibility: 6mi
Dew Point: 50°   Wind: 23mph
Humidity: 77%   Direction: 280°W
Pressure: 29.68"   Gusts: NA
Location:  55.88°N, 12.5°E
Report Text: EKCH 200950Z 28020KT 9999 BKN024 14/10 Q1005 NOSIG
Loading
Personal Weather Stations






























Interactive Weather Map New forecast layout! Learn more

10-Day Weather Forecast

Advertisements
Track Severe Weather on mobile